createdAt,value
2018-07-12T00:02:13.262Z,65.20
2018-07-12T00:04:40.977Z,65.10
2018-07-12T00:07:08.611Z,65.20
2018-07-12T00:09:36.169Z,65.20
2018-07-12T00:12:03.704Z,65.30
2018-07-12T00:14:32.140Z,65.10
2018-07-12T00:16:59.769Z,65.40
2018-07-12T00:19:27.316Z,65.20
2018-07-12T00:21:55.658Z,65.10
2018-07-12T00:24:23.225Z,65.20
2018-07-12T00:26:50.881Z,65.20
2018-07-12T00:29:18.744Z,65.20
2018-07-12T00:31:46.751Z,65.30
2018-07-12T00:34:14.563Z,65.30
2018-07-12T00:36:42.329Z,65.20
2018-07-12T00:39:11.757Z,65.30
2018-07-12T00:44:07.758Z,65.30
2018-07-12T00:46:35.699Z,65.40
2018-07-12T00:49:03.350Z,65.30
2018-07-12T00:51:31.497Z,65.30
2018-07-12T00:53:59.301Z,65.50
2018-07-12T00:56:26.883Z,65.60
2018-07-12T00:58:54.753Z,65.60
2018-07-12T01:01:22.553Z,65.60
2018-07-12T01:03:50.267Z,65.70
2018-07-12T01:06:19.571Z,65.80
2018-07-12T01:08:47.346Z,65.70
2018-07-12T01:11:16.638Z,65.80
2018-07-12T01:13:45.443Z,66.00
2018-07-12T01:16:13.409Z,65.80
2018-07-12T01:18:41.208Z,65.90
2018-07-12T01:21:08.986Z,65.90
2018-07-12T01:23:36.612Z,65.90
2018-07-12T01:26:04.611Z,66.00
2018-07-12T01:28:32.173Z,66.10
2018-07-12T01:31:00.267Z,66.10
2018-07-12T01:33:28.175Z,66.10
2018-07-12T01:35:56.286Z,66.10
2018-07-12T01:38:24.900Z,66.10
2018-07-12T01:40:52.594Z,66.10
2018-07-12T01:43:20.224Z,66.20
2018-07-12T01:45:47.945Z,66.20
2018-07-12T01:48:15.610Z,66.30
2018-07-12T01:50:43.410Z,66.30
2018-07-12T01:53:11.343Z,66.20
2018-07-12T01:55:40.824Z,66.40
2018-07-12T01:58:09.054Z,66.50
2018-07-12T02:00:37.647Z,66.50
2018-07-12T02:03:05.247Z,66.70
2018-07-12T02:05:32.904Z,66.70
2018-07-12T02:08:00.607Z,66.80
2018-07-12T02:10:28.251Z,66.70
2018-07-12T02:12:55.901Z,66.80
2018-07-12T02:15:24.225Z,66.90
2018-07-12T02:17:52.717Z,66.90
2018-07-12T02:20:20.851Z,66.90
2018-07-12T02:22:48.646Z,66.90
2018-07-12T02:25:16.627Z,67.10
2018-07-12T02:27:45.281Z,67.10
2018-07-12T02:30:13.412Z,67.20
2018-07-12T02:32:41.384Z,67.20
2018-07-12T02:35:09.338Z,67.20
2018-07-12T02:37:37.191Z,67.30
2018-07-12T02:40:05.007Z,67.20
2018-07-12T02:42:32.627Z,67.40
2018-07-12T02:45:00.472Z,67.50
2018-07-12T02:47:28.217Z,67.60
2018-07-12T02:49:56.336Z,67.50
2018-07-12T02:52:24.360Z,67.50
2018-07-12T02:54:53.963Z,67.50
2018-07-12T02:57:21.627Z,67.20
2018-07-12T02:59:49.303Z,67.40
2018-07-12T03:02:17.045Z,67.50
2018-07-12T03:04:44.680Z,67.50
2018-07-12T03:07:13.422Z,67.50
2018-07-12T03:09:41.038Z,67.60
2018-07-12T03:12:08.643Z,67.70
2018-07-12T03:14:36.256Z,67.70
2018-07-12T03:17:03.912Z,67.70
2018-07-12T03:19:31.705Z,67.80
2018-07-12T03:22:00.626Z,67.90
2018-07-12T03:24:28.476Z,67.90
2018-07-12T03:26:56.380Z,68.00
2018-07-12T03:29:23.997Z,68.00
2018-07-12T03:31:52.085Z,68.10
2018-07-12T03:34:20.229Z,68.10
2018-07-12T03:36:47.977Z,68.30
2018-07-12T03:39:16.386Z,68.40
2018-07-12T03:41:44.869Z,68.40
2018-07-12T03:44:13.037Z,68.30
2018-07-12T03:46:41.077Z,68.40
2018-07-12T03:49:09.372Z,68.60
2018-07-12T03:51:38.805Z,68.60
2018-07-12T03:54:06.489Z,68.70
2018-07-12T03:56:34.397Z,68.90
2018-07-12T03:59:02.416Z,68.90
2018-07-12T04:01:30.408Z,68.90
2018-07-12T04:06:26.392Z,69.20
2018-07-12T04:08:54.592Z,69.20
2018-07-12T04:11:23.333Z,69.20
2018-07-12T04:13:51.924Z,69.10
2018-07-12T04:16:19.655Z,69.20
2018-07-12T04:18:47.710Z,69.20
2018-07-12T04:21:15.393Z,69.20
2018-07-12T04:23:43.973Z,69.40
2018-07-12T04:26:11.615Z,69.40
2018-07-12T04:28:39.490Z,69.50
2018-07-12T04:31:07.174Z,70.40
2018-07-12T04:33:35.467Z,69.60
2018-07-12T04:36:03.728Z,69.60
2018-07-12T04:38:32.644Z,69.70
2018-07-12T04:41:02.388Z,69.80
2018-07-12T04:43:30.304Z,69.60
2018-07-12T04:45:58.808Z,69.60
2018-07-12T04:48:26.669Z,69.60
2018-07-12T04:50:54.777Z,69.50
2018-07-12T04:53:22.833Z,69.50
2018-07-12T04:55:50.511Z,69.40
2018-07-12T04:58:18.229Z,69.30
2018-07-12T05:00:45.793Z,69.20
2018-07-12T05:03:13.577Z,69.20
2018-07-12T05:05:41.149Z,69.20
2018-07-12T05:08:09.949Z,70.20
2018-07-12T05:10:37.610Z,69.50
2018-07-12T05:13:05.347Z,69.50
2018-07-12T05:15:33.036Z,69.50
2018-07-12T05:18:00.657Z,69.40
2018-07-12T05:20:28.357Z,69.40
2018-07-12T05:22:56.334Z,69.50
2018-07-12T05:25:24.853Z,69.40
2018-07-12T05:27:52.753Z,69.20
2018-07-12T05:30:20.349Z,69.20
2018-07-12T05:32:48.335Z,69.20
2018-07-12T05:35:16.926Z,69.20
2018-07-12T05:37:47.621Z,69.20
2018-07-12T05:40:17.618Z,69.10
2018-07-12T05:42:47.654Z,69.80
2018-07-12T05:45:18.068Z,68.90
2018-07-12T05:47:48.255Z,68.90
2018-07-12T05:52:47.791Z,68.90
2018-07-12T05:55:17.680Z,68.90
2018-07-12T05:57:48.270Z,69.00
2018-07-12T06:00:19.762Z,68.90
2018-07-12T06:02:51.380Z,68.90
2018-07-12T06:05:23.483Z,68.90
2018-07-12T06:07:54.130Z,68.80
2018-07-12T06:10:26.565Z,68.80
2018-07-12T06:12:56.421Z,68.50
2018-07-12T06:18:04.689Z,67.90
2018-07-12T06:20:34.573Z,67.80
2018-07-12T06:23:05.235Z,67.50
2018-07-12T06:25:37.834Z,66.80
2018-07-12T06:28:07.845Z,66.60
2018-07-12T06:30:37.512Z,66.20
2018-07-12T06:33:07.207Z,65.60
2018-07-12T06:35:37.748Z,65.70
2018-07-12T06:38:07.019Z,65.40
2018-07-12T06:40:36.747Z,64.90
2018-07-12T06:43:06.540Z,64.90
2018-07-12T06:45:36.375Z,65.00
2018-07-12T06:48:06.081Z,64.80
2018-07-12T06:50:35.307Z,64.50
2018-07-12T06:53:05.273Z,64.00
2018-07-12T06:55:34.996Z,63.80
2018-07-12T07:00:41.367Z,63.50
2018-07-12T07:03:11.712Z,63.40
2018-07-12T07:05:41.112Z,63.50
2018-07-12T07:08:11.166Z,63.40
2018-07-12T07:10:41.409Z,62.90
2018-07-12T07:13:11.249Z,61.40
2018-07-12T07:15:40.671Z,60.90
2018-07-12T07:18:10.815Z,60.40
2018-07-12T07:20:40.228Z,59.40
2018-07-12T07:23:10.165Z,59.30
2018-07-12T07:25:39.711Z,59.30
2018-07-12T07:28:10.894Z,59.10
2018-07-12T07:30:40.153Z,58.50
2018-07-12T07:33:10.568Z,57.70
2018-07-12T07:35:40.577Z,57.70
2018-07-12T07:38:10.542Z,56.30
2018-07-12T07:40:39.725Z,55.90
2018-07-12T07:43:09.648Z,55.90
2018-07-12T07:45:39.297Z,55.70
2018-07-12T07:48:11.312Z,55.70
2018-07-12T07:50:42.068Z,55.40
2018-07-12T07:53:11.736Z,54.60
2018-07-12T07:55:40.756Z,54.30
2018-07-12T07:58:09.962Z,54.80
2018-07-12T08:00:39.045Z,54.90
2018-07-12T08:03:08.856Z,54.50
2018-07-12T08:05:38.243Z,53.90
2018-07-12T08:08:07.674Z,53.40
2018-07-12T08:10:36.959Z,52.90
2018-07-12T08:13:06.050Z,53.10
2018-07-12T08:15:35.359Z,53.10
2018-07-12T08:18:04.472Z,53.70
2018-07-12T08:20:33.574Z,53.30
2018-07-12T08:23:02.613Z,53.60
2018-07-12T08:25:31.773Z,53.10
2018-07-12T08:28:19.517Z,53.60
2018-07-12T08:30:48.603Z,53.10
2018-07-12T08:35:46.417Z,51.70
2018-07-12T08:38:16.060Z,51.30
2018-07-12T08:40:45.432Z,50.60
2018-07-12T08:43:15.179Z,50.30
2018-07-12T08:45:45.386Z,50.00
2018-07-12T08:48:15.701Z,49.90
2018-07-12T08:50:45.118Z,50.60
2018-07-12T08:53:15.781Z,50.40
2018-07-12T08:55:47.739Z,50.20
2018-07-12T08:58:17.854Z,50.30
2018-07-12T09:00:48.161Z,50.50
2018-07-12T09:03:18.402Z,51.30
2018-07-12T09:05:48.382Z,50.30
2018-07-12T09:08:18.188Z,49.40
2018-07-12T09:10:48.192Z,49.20
2018-07-12T09:15:47.576Z,48.60
2018-07-12T09:18:17.476Z,47.80
2018-07-12T09:20:47.924Z,48.40
2018-07-12T09:23:17.719Z,48.70
2018-07-12T09:25:47.244Z,48.70
2018-07-12T09:28:16.905Z,47.70
2018-07-12T09:30:46.876Z,47.00
2018-07-12T09:35:45.862Z,46.20
2018-07-12T09:38:35.068Z,47.40
2018-07-12T09:41:06.800Z,48.00
2018-07-12T09:43:36.643Z,48.20
2018-07-12T09:46:08.445Z,47.60
2018-07-12T09:48:40.779Z,46.60
2018-07-12T09:51:11.800Z,45.50
2018-07-12T09:53:43.026Z,45.80
2018-07-12T09:56:13.216Z,46.20
2018-07-12T09:58:42.978Z,47.10
2018-07-12T10:01:18.092Z,47.00
2018-07-12T10:03:50.313Z,47.00
2018-07-12T10:06:26.279Z,47.60
2018-07-12T10:08:56.174Z,47.20
2018-07-12T10:11:32.268Z,47.20
2018-07-12T10:14:07.359Z,48.20
2018-07-12T10:16:42.167Z,47.70
2018-07-12T10:19:11.976Z,47.30
2018-07-12T10:21:42.122Z,47.10
2018-07-12T10:24:11.913Z,47.60
2018-07-12T10:26:42.795Z,46.80
2018-07-12T10:31:43.164Z,44.70
2018-07-12T10:34:13.009Z,45.80
2018-07-12T10:36:43.369Z,45.70
2018-07-12T10:39:14.239Z,45.20
2018-07-12T10:41:44.142Z,45.00
2018-07-12T10:44:14.355Z,44.80
2018-07-12T10:46:44.627Z,44.60
2018-07-12T10:49:15.202Z,44.60
2018-07-12T10:51:45.254Z,45.20
2018-07-12T10:54:17.036Z,45.00
2018-07-12T10:56:47.641Z,44.60
2018-07-12T10:59:17.405Z,44.50
2018-07-12T11:01:47.665Z,45.00
2018-07-12T11:04:17.440Z,44.50
2018-07-12T11:06:46.965Z,43.80
2018-07-12T11:09:16.619Z,44.10
2018-07-12T11:11:46.953Z,44.70
2018-07-12T11:14:18.430Z,43.40
2018-07-12T11:16:48.427Z,43.70
2018-07-12T11:19:20.379Z,44.20
2018-07-12T11:21:50.976Z,43.30
2018-07-12T11:24:22.350Z,43.20
2018-07-12T11:26:54.234Z,43.00
2018-07-12T11:29:56.221Z,42.90
2018-07-12T11:32:25.979Z,42.90
2018-07-12T11:34:56.761Z,43.00
2018-07-12T11:37:27.657Z,44.20
2018-07-12T11:39:59.659Z,43.80
2018-07-12T11:42:32.113Z,43.90
2018-07-12T11:45:02.415Z,43.70
2018-07-12T11:47:31.889Z,43.40
2018-07-12T11:50:02.761Z,43.10
2018-07-12T11:52:34.973Z,43.20
2018-07-12T11:55:05.259Z,42.50
2018-07-12T11:57:37.495Z,43.20
2018-07-12T12:00:09.218Z,42.80
2018-07-12T12:02:40.469Z,42.40
2018-07-12T12:05:12.206Z,42.80
2018-07-12T12:07:42.690Z,42.80
2018-07-12T12:10:15.185Z,42.10
2018-07-12T12:12:46.085Z,42.00
2018-07-12T12:15:17.781Z,41.60
2018-07-12T12:17:48.081Z,41.60
2018-07-12T12:20:18.642Z,42.80
2018-07-12T12:22:48.336Z,42.90
2018-07-12T12:25:21.840Z,42.70
2018-07-12T12:27:54.780Z,43.10
2018-07-12T12:30:24.910Z,42.60
2018-07-12T12:32:55.773Z,42.90
2018-07-12T12:35:33.356Z,43.00
2018-07-12T12:38:03.512Z,42.50
2018-07-12T12:40:35.089Z,42.90
2018-07-12T12:43:05.162Z,42.70
2018-07-12T12:45:35.644Z,42.90
2018-07-12T12:48:07.053Z,42.90
2018-07-12T12:50:37.959Z,42.80
2018-07-12T12:53:09.422Z,43.00
2018-07-12T12:55:41.398Z,41.90
2018-07-12T12:58:11.592Z,41.20
2018-07-12T13:00:41.618Z,41.00
2018-07-12T13:03:14.283Z,40.60
2018-07-12T13:05:44.753Z,41.50
2018-07-12T13:08:16.481Z,41.20
2018-07-12T13:10:46.881Z,42.10
2018-07-12T13:13:17.009Z,41.60
2018-07-12T13:15:46.935Z,41.50
2018-07-12T13:18:18.781Z,41.70
2018-07-12T13:20:49.296Z,41.90
2018-07-12T13:23:22.241Z,42.10
2018-07-12T13:25:52.696Z,42.90
2018-07-12T13:28:24.798Z,43.10
2018-07-12T13:30:55.609Z,42.90
2018-07-12T13:33:34.551Z,42.50
2018-07-12T13:36:05.072Z,42.10
2018-07-12T13:38:35.721Z,41.90
2018-07-12T13:41:08.333Z,41.40
2018-07-12T13:43:40.443Z,41.00
2018-07-12T13:46:11.180Z,41.20
2018-07-12T13:48:42.010Z,41.00
2018-07-12T13:51:14.006Z,40.90
2018-07-12T13:53:44.407Z,40.90
2018-07-12T13:56:15.339Z,40.40
2018-07-12T13:58:45.680Z,40.30
2018-07-12T14:01:15.295Z,40.30
2018-07-12T14:03:45.382Z,40.00
2018-07-12T14:06:17.113Z,39.90
2018-07-12T14:08:46.607Z,39.90
2018-07-12T14:11:17.328Z,39.60
2018-07-12T14:13:47.606Z,39.20
2018-07-12T14:16:17.012Z,39.40
2018-07-12T14:18:46.300Z,39.30
2018-07-12T14:21:15.737Z,39.90
2018-07-12T14:23:46.047Z,39.60
2018-07-12T14:26:17.818Z,40.50
2018-07-12T14:28:50.084Z,39.80
2018-07-12T14:31:20.194Z,39.70
2018-07-12T14:33:50.547Z,39.30
2018-07-12T14:36:22.067Z,39.60
2018-07-12T14:38:55.563Z,39.20
2018-07-12T14:41:27.322Z,39.70
2018-07-12T14:44:04.576Z,39.30
2018-07-12T14:46:38.116Z,39.40
2018-07-12T14:49:12.008Z,40.10
2018-07-12T14:51:43.533Z,39.50
2018-07-12T14:54:14.632Z,39.80
2018-07-12T14:56:43.800Z,39.70
2018-07-12T14:59:13.642Z,40.00
2018-07-12T15:01:43.705Z,40.10
2018-07-12T15:04:12.883Z,40.10
2018-07-12T15:06:42.707Z,40.00
2018-07-12T15:11:42.186Z,40.70
2018-07-12T15:14:11.834Z,40.10
2018-07-12T15:16:41.325Z,39.50
2018-07-12T15:19:10.418Z,39.20
2018-07-12T15:21:39.903Z,39.10
2018-07-12T15:24:09.367Z,39.40
2018-07-12T15:26:39.997Z,39.50
2018-07-12T15:29:10.306Z,39.20
2018-07-12T15:31:41.746Z,39.30
2018-07-12T15:34:11.981Z,39.90
2018-07-12T15:36:42.404Z,39.80
2018-07-12T15:39:16.035Z,40.30
2018-07-12T15:41:47.186Z,40.00
2018-07-12T15:44:17.490Z,40.00
2018-07-12T15:46:47.651Z,40.20
2018-07-12T15:49:19.284Z,40.20
2018-07-12T15:51:49.551Z,40.00
2018-07-12T15:54:19.370Z,39.80
2018-07-12T15:56:49.183Z,40.00
2018-07-12T15:59:18.733Z,39.40
2018-07-12T16:01:48.856Z,39.50
2018-07-12T16:04:18.554Z,39.20
2018-07-12T16:06:48.360Z,39.10
2018-07-12T16:09:19.789Z,39.20
2018-07-12T16:11:49.887Z,39.30
2018-07-12T16:14:19.477Z,39.20
2018-07-12T16:16:52.981Z,39.30
2018-07-12T16:21:53.684Z,39.80
2018-07-12T16:24:23.852Z,39.60
2018-07-12T16:26:53.348Z,40.30
2018-07-12T16:29:25.569Z,39.60
2018-07-12T16:31:56.081Z,39.60
2018-07-12T16:34:26.101Z,39.60
2018-07-12T16:36:55.960Z,39.90
2018-07-12T16:39:25.641Z,40.10
2018-07-12T16:41:55.564Z,40.20
2018-07-12T16:44:26.048Z,40.20
2018-07-12T16:46:56.166Z,40.00
2018-07-12T16:49:25.782Z,39.90
2018-07-12T16:51:58.167Z,40.20
2018-07-12T16:54:29.539Z,40.10
2018-07-12T16:56:59.749Z,40.00
2018-07-12T16:59:29.826Z,40.10
2018-07-12T17:01:59.731Z,39.80
2018-07-12T17:04:30.732Z,39.90
2018-07-12T17:07:00.691Z,39.60
2018-07-12T17:09:30.484Z,39.70
2018-07-12T17:11:59.963Z,39.00
2018-07-12T17:14:30.384Z,38.90
2018-07-12T17:17:00.844Z,38.70
2018-07-12T17:19:31.509Z,38.70
2018-07-12T17:22:02.327Z,38.80
2018-07-12T17:24:31.833Z,39.00
2018-07-12T17:27:01.225Z,39.50
2018-07-12T17:29:30.821Z,39.90
2018-07-12T17:32:01.050Z,40.00
2018-07-12T17:34:31.264Z,40.20
2018-07-12T17:37:01.009Z,40.30
2018-07-12T17:39:30.972Z,40.50
2018-07-12T17:42:02.701Z,40.50
2018-07-12T17:44:34.706Z,40.80
2018-07-12T17:47:05.677Z,41.00
2018-07-12T17:49:37.144Z,41.00
2018-07-12T17:52:11.029Z,41.10
2018-07-12T17:54:41.760Z,41.10
2018-07-12T17:57:11.336Z,41.00
2018-07-12T17:59:41.293Z,40.90
2018-07-12T18:02:11.749Z,40.80
2018-07-12T18:04:42.131Z,40.80
2018-07-12T18:07:12.656Z,40.70
2018-07-12T18:09:41.691Z,41.00
2018-07-12T18:12:12.016Z,41.40
2018-07-12T18:14:42.724Z,41.30
2018-07-12T18:17:15.896Z,41.30
2018-07-12T18:19:50.787Z,41.50
2018-07-12T18:22:20.616Z,41.70
2018-07-12T18:24:51.395Z,41.90
2018-07-12T18:27:22.124Z,42.00
2018-07-12T18:29:51.992Z,42.20
2018-07-12T18:32:22.263Z,42.50
2018-07-12T18:34:53.413Z,42.60
2018-07-12T18:37:25.738Z,42.90
2018-07-12T18:39:55.934Z,42.90
2018-07-12T18:42:25.833Z,42.80
2018-07-12T18:44:55.412Z,42.90
2018-07-12T18:47:25.459Z,42.80
2018-07-12T18:49:57.310Z,43.00
2018-07-12T18:52:26.877Z,43.00
2018-07-12T18:54:58.894Z,42.90
2018-07-12T18:57:29.353Z,43.10
2018-07-12T18:59:58.963Z,43.30
2018-07-12T19:02:28.885Z,43.40
2018-07-12T19:04:58.972Z,43.80
2018-07-12T19:07:28.084Z,43.90
2018-07-12T19:09:58.505Z,44.10
2018-07-12T19:12:29.122Z,44.30
2018-07-12T19:14:58.526Z,44.50
2018-07-12T19:19:58.417Z,45.00
2018-07-12T19:22:28.525Z,45.20
2018-07-12T19:24:58.415Z,45.20
2018-07-12T19:27:28.390Z,45.40
2018-07-12T19:30:00.636Z,45.50
2018-07-12T19:32:30.581Z,45.70
2018-07-12T19:35:01.682Z,45.80
2018-07-12T19:37:31.566Z,46.10
2018-07-12T19:40:02.528Z,46.10
2018-07-12T19:42:32.590Z,46.90
2018-07-12T19:45:02.791Z,46.40
2018-07-12T19:47:33.028Z,46.40
2018-07-12T19:50:05.295Z,46.40
2018-07-12T19:52:35.952Z,46.60
2018-07-12T19:55:05.897Z,47.20
2018-07-12T19:57:37.159Z,46.70
2018-07-12T20:00:09.559Z,47.00
2018-07-12T20:05:12.914Z,47.00
2018-07-12T20:07:42.909Z,47.00
2018-07-12T20:10:14.213Z,47.30
2018-07-12T20:12:44.157Z,47.60
2018-07-12T20:15:15.531Z,47.70
2018-07-12T20:17:45.757Z,48.10
2018-07-12T20:20:15.704Z,48.30
2018-07-12T20:22:45.691Z,48.50
2018-07-12T20:25:16.147Z,48.60
2018-07-12T20:27:48.571Z,48.70
2018-07-12T20:30:19.269Z,48.80
2018-07-12T20:32:49.220Z,48.90
2018-07-12T20:35:19.005Z,48.90
2018-07-12T20:37:49.440Z,49.10
2018-07-12T20:40:25.295Z,49.10
2018-07-12T20:42:56.214Z,49.50
2018-07-12T20:45:31.670Z,49.50
2018-07-12T20:48:02.273Z,49.60
2018-07-12T20:50:31.547Z,49.80
2018-07-12T20:53:02.346Z,49.90
2018-07-12T20:55:31.754Z,50.00
2018-07-12T21:00:32.933Z,50.50
2018-07-12T21:03:03.496Z,50.40
2018-07-12T21:05:36.647Z,50.50
2018-07-12T21:08:08.766Z,50.60
2018-07-12T21:10:39.043Z,50.80
2018-07-12T21:13:09.219Z,50.90
2018-07-12T21:15:42.991Z,51.10
2018-07-12T21:18:15.298Z,51.30
2018-07-12T21:20:51.928Z,51.60
2018-07-12T21:23:22.131Z,51.80
2018-07-12T21:25:51.804Z,52.00
2018-07-12T21:28:21.115Z,52.00
2018-07-12T21:30:50.296Z,52.20
2018-07-12T21:33:19.440Z,52.30
2018-07-12T21:35:48.602Z,52.50
2018-07-12T21:38:18.891Z,52.80
2018-07-12T21:40:48.265Z,52.70
2018-07-12T21:43:18.128Z,52.80
2018-07-12T21:45:48.256Z,53.00
2018-07-12T21:48:17.452Z,53.00
2018-07-12T21:50:47.538Z,52.90
2018-07-12T21:53:16.702Z,53.10
2018-07-12T21:55:45.830Z,53.10
2018-07-12T21:58:15.298Z,53.20
2018-07-12T22:00:44.484Z,53.20
2018-07-12T22:03:13.854Z,53.20
2018-07-12T22:05:43.088Z,55.50
2018-07-12T22:08:13.970Z,55.00
2018-07-12T22:10:44.668Z,54.20
2018-07-12T22:13:14.881Z,53.90
2018-07-12T22:18:16.053Z,53.60
2018-07-12T22:20:45.241Z,53.40
2018-07-12T22:23:14.471Z,53.40
2018-07-12T22:25:43.652Z,53.40
2018-07-12T22:28:13.665Z,53.30
2018-07-12T22:30:43.067Z,53.30
2018-07-12T22:33:12.409Z,53.30
2018-07-12T22:35:41.778Z,53.50
2018-07-12T22:40:39.854Z,53.70
2018-07-12T22:43:09.842Z,53.60
2018-07-12T22:48:09.543Z,53.80
2018-07-12T22:50:38.985Z,54.00
2018-07-12T22:53:09.122Z,54.10
2018-07-12T22:55:38.439Z,54.10
2018-07-12T22:58:08.460Z,54.40
2018-07-12T23:00:37.909Z,54.20
2018-07-12T23:03:07.106Z,54.40
2018-07-12T23:05:36.249Z,54.40
2018-07-12T23:08:06.115Z,54.50
2018-07-12T23:10:35.423Z,54.60
2018-07-12T23:13:04.683Z,54.60
2018-07-12T23:15:34.545Z,54.80
2018-07-12T23:18:04.800Z,54.80
2018-07-12T23:20:34.076Z,54.80
2018-07-12T23:23:03.300Z,55.00
2018-07-12T23:25:32.555Z,55.10
2018-07-12T23:28:01.808Z,55.20
2018-07-12T23:30:31.035Z,55.30
2018-07-12T23:33:00.281Z,55.40
2018-07-12T23:35:29.608Z,55.40
2018-07-12T23:37:58.916Z,55.40
2018-07-12T23:40:28.100Z,55.60
2018-07-12T23:42:57.732Z,55.70
2018-07-12T23:45:27.330Z,56.10
2018-07-12T23:47:56.740Z,56.30
2018-07-12T23:50:25.914Z,56.50
2018-07-12T23:52:55.155Z,56.70
2018-07-12T23:55:24.331Z,57.00
2018-07-12T23:57:53.462Z,57.30
